Terminal Aerodrome Forecast
Issued by NWS

Home | Current Version | Previous Version | Text Only | Print | Product List | Glossary On
Versions: 1 2 3 4 5 6 7 8 9 10 11 12 13 14 15 16
408
FTUS45 KABQ 061125
TAFTCC
TAF
KTCC 061125Z 0612/0712 25008KT P6SM SKC
     FM062000 22011G18KT P6SM SKC
     FM070100 22008KT P6SM FEW250
     FM070600 27008KT P6SM SKC
     FM071000 31008KT P6SM SKC=

USA.gov is the U.S. government's official web portal to all federal, state and local government web resources and services.